EW7338 Weather Reports


Display with metric or nautical units.
time (UTC)temp
F
wind
direction
speed
MPH
gust
MPH
rain 1hr
in
rain 24hr
in
rain mn
in
humidity
%
barometer
mb
20260510124540 63 353 0.0 0.0 0.00 0.00 0.00 74 1008.2
20260510123002 58 353 0.0 0.0 0.00 0.00 0.00 81 1008.0
20260510121538 56 353 0.0 1.0 0.00 0.00 0.00 81 1008.0
20260510120058 56 75 0.0 0.0 0.00 0.00 0.00 83 1007.7
20260510114525 55 75 0.0 1.0 0.00 0.00 0.00 83 1007.5
20260510113100 54 90 0.0 1.0 0.00 0.00 0.00 83 1007.3
20260510111518 54 97 0.0 0.0 0.00 0.00 0.00 83 1007.1
20260510110046 54 112 0.0 0.0 0.00 0.00 0.00 84 1006.9
20260510104514 53 112 0.0 0.0 0.00 0.00 0.00 84 1006.8
20260510103041 53 113 0.0 1.0 0.00 0.00 0.00 85 1006.7
20260510101503 52 155 0.0 0.0 0.00 0.00 0.00 85 1006.3
20260510100033 52 167 0.0 0.0 0.00 0.00 0.00 86 1006.3
20260510094605 52 167 0.0 0.0 0.00 0.00 0.00 85 1006.2
20260510093026 54 39 0.0 1.0 0.00 0.00 0.00 82 1006.0
20260510091548 54 39 0.0 1.0 0.00 0.00 0.00 81 1005.9
20260510090012 54 39 0.0 1.0 0.00 0.00 0.00 80 1005.6
20260510084541 54 37 0.0 1.0 0.00 0.00 0.00 80 1005.5
20260510083002 55 30 0.0 1.0 0.00 0.00 0.00 78 1005.5
20260510081523 57 343 0.0 2.0 0.00 0.00 0.00 74 1005.5
20260510074523 58 133 0.0 3.0 0.00 0.00 0.00 71 1005.1
20260510073113 58 214 0.0 1.0 0.00 0.00 0.00 71 1005.0
20260510071523 58 257 0.0 1.0 0.00 0.00 0.00 73 1005.1
20260510070057 58 227 0.0 2.0 0.00 0.00 0.00 72 1005.0
20260510064537 58 245 0.0 2.0 0.00 0.00 0.00 73 1005.0
20260510063048 58 261 0.0 1.0 0.00 0.00 0.00 72 1005.0
20260510061510 58 223 0.0 1.0 0.00 0.00 0.00 70 1005.2
20260510060033 60 238 1.0 3.0 0.00 0.00 0.00 68 1005.2
20260510054605 61 217 0.0 2.0 0.00 0.00 0.00 66 1005.2
20260510053039 61 243 0.0 1.0 0.00 0.00 0.00 65 1005.0
20260510051604 61 205 0.0 4.0 0.00 0.00 0.00 65 1005.2
20260510050029 61 205 1.0 4.0 0.00 0.00 0.00 66 1005.2
20260510044556 62 155 0.0 1.0 0.00 0.00 0.00 64 1005.3
20260510043026 62 203 0.0 4.0 0.00 0.00 0.00 62 1005.3
20260510041557 62 157 0.0 2.0 0.00 0.00 0.00 63 1005.2
20260510040023 62 228 1.0 5.0 0.00 0.00 0.00 63 1005.2
20260510034607 61 216 0.0 5.0 0.00 0.00 0.00 65 1005.2
20260510033016 61 120 0.0 1.0 0.00 0.00 0.00 65 1005.0
20260510031549 61 153 0.0 2.0 0.00 0.00 0.00 64 1004.9
20260510030019 63 292 0.0 0.0 0.00 0.00 0.00 59 1004.7
20260510024550 64 292 0.0 1.0 0.00 0.00 0.00 56 1004.7
20260510023020 65 262 0.0 1.0 0.00 0.00 0.00 56 1004.6
20260510021601 65 303 0.0 2.0 0.00 0.00 0.00 55 1004.4
20260510020028 65 279 0.0 1.0 0.00 0.00 0.00 55 1004.3
20260510014552 66 253 0.0 4.0 0.00 0.00 0.00 54 1004.0
20260510013014 66 322 0.0 1.0 0.00 0.00 0.00 53 1003.5
20260510011547 66 314 0.0 1.0 0.00 0.00 0.00 52 1003.3
20260510010016 67 321 0.0 3.0 0.00 0.00 0.00 50 1003.0
20260510004546 68 319 0.0 5.0 0.00 0.00 0.00 50 1002.8
20260510003016 68 337 1.0 3.0 0.00 0.00 0.00 49 1002.9
20260510001547 70 317 2.0 4.0 0.00 0.00 0.00 47 1002.8
20260510000019 71 309 1.0 6.0 0.00 0.00 0.00 46 1002.6
20260509234550 72 322 3.0 12.0 0.00 0.00 0.00 44 1002.4
20260509233021 73 239 3.0 9.0 0.00 0.00 0.00 44 1002.2
20260509231553 74 332 3.0 7.0 0.00 0.00 0.00 44 1002.0
20260509230019 74 359 2.0 8.0 0.00 0.00 0.00 45 1001.8
20260509224548 74 319 4.0 9.0 0.00 0.00 0.00 45 1001.8
20260509223017 74 333 5.0 13.0 0.00 0.00 0.00 43 1001.9
20260509221551 75 219 2.0 8.0 0.00 0.00 0.00 45 1001.8
20260509220015 75 335 4.0 12.0 0.00 0.00 0.00 42 1001.7
20260509214558 75 211 5.0 9.0 0.00 0.00 0.00 43 1001.6
20260509213005 75 278 1.0 11.0 0.00 0.00 0.00 51 1001.5
20260509211530 75 226 2.0 7.0 0.00 0.00 0.00 54 1001.5
20260509210100 74 148 5.0 11.0 0.00 0.00 0.00 53 1001.3
20260509204526 73 233 1.0 7.0 0.00 0.00 0.00 53 1001.4
20260509203055 73 288 3.0 9.0 0.00 0.00 0.00 52 1001.5
20260509201523 74 250 1.0 8.0 0.00 0.00 0.00 51 1001.5
20260509200108 74 258 0.0 11.0 0.00 0.00 0.00 50 1001.5
20260509194532 74 238 0.0 5.0 0.00 0.00 0.00 50 1001.6
20260509193053 74 151 2.0 10.0 0.00 0.00 0.00 51 1001.5
20260509191515 74 98 2.0 7.0 0.00 0.00 0.00 50 1001.8
20260509190039 73 207 1.0 10.0 0.00 0.00 0.00 51 1001.9
20260509184504 73 227 1.0 8.0 0.00 0.00 0.00 53 1002.0
20260509183030 72 203 3.0 12.0 0.00 0.00 0.00 54 1002.2
20260509181554 72 150 4.0 13.0 0.00 0.00 0.00 57 1002.4
20260509180016 71 233 4.0 15.0 0.00 0.00 0.00 59 1002.8
20260509174551 70 195 6.0 16.0 0.00 0.00 0.00 57 1002.8
20260509173016 71 229 8.0 13.0 0.00 0.00 0.00 57 1002.7
20260509171543 70 226 7.0 16.0 0.00 0.00 0.00 59 1002.9
20260509164524 68 176 3.0 11.0 0.00 0.00 0.00 61 1003.5
20260509163101 68 151 3.0 12.0 0.00 0.00 0.00 63 1003.7
20260509161526 68 214 4.0 11.0 0.00 0.00 0.00 65 1003.7
20260509160043 67 223 5.0 14.0 0.00 0.00 0.00 65 1003.6
20260509154508 67 98 2.0 9.0 0.00 0.00 0.00 66 1003.8
20260509153047 67 197 4.0 10.0 0.00 0.00 0.00 65 1004.1
20260509151510 67 215 2.0 8.0 0.00 0.00 0.00 66 1003.9
20260509150039 66 143 2.0 9.0 0.00 0.00 0.00 67 1003.9
20260509144552 64 224 3.0 9.0 0.00 0.00 0.00 69 1004.2
20260509143015 62 226 3.0 10.0 0.00 0.00 0.00 71 1004.6
20260509141537 61 236 1.0 5.0 0.00 0.00 0.00 73 1004.7
20260509140108 60 217 3.0 8.0 0.00 0.00 0.00 74 1004.6
20260509134527 59 162 1.0 4.0 0.00 0.00 0.00 74 1004.5
20260509133046 58 116 0.0 4.0 0.00 0.00 0.00 77 1004.9
20260509131504 56 158 0.0 2.0 0.00 0.00 0.00 80 1005.4
20260509130030 55 230 0.0 0.0 0.00 0.00 0.00 80 1005.5